Rechercher aéroport 
image banner adimage banner adimage banner ad
image banner ad

CL29 - Camino Airstrip

Situé à Goffs, United States

ICAO - CL29, IATA -

Données fournies par Airmate  

Information générale

Coordonnées: N34°50'7" W114°57'25"
Élévation : 2079 feet MSL.
Variation magnétique : 14° East
Voir autres Aéroports à California

Données opérationnelles

Special qualification required
Heure actuelle UTC:
Heure actuelle locale:
Météo à : KEED - Needles ( 31 km )
METAR: KEED 262256Z AUTO 18009G15KT 10SM CLR 37/16 A2986 RMK AO2 SLP078 T03670161 PNO $
TAF: KEED 261720Z 2618/2718 16009KT P6SM SCT060 BKN120 FM262100 20011KT P6SM SCT060 FM270300 22007KT P6SM SCT060 FM270700 VRB06KT P6SM SCT100 FM271400 22008KT P6SM SCT100
Voir NOTAMs / SUP AIP / TFR affectant cet aéroport [VIEW]
Fréquences de communication: [VIEW]

Pistes:

Identifiant RWYQFULongueur (ft)Largeur (ft)SurfaceLDA (ft)
14300080EARTH
32300080EARTH

Coordonnées de l'aéroport

Adresse: Goffs United States

Vue satellite de CL29